Meteo Giornale » Osservazioni meteo Stati Uniti (USA) » Miles City Frank Wiley Fld
ore: 06:53 - Osservazioni Meteo Miles City Frank Wiley Fld
Lat. 46° 25' N Lon. 105° 53' W Alt. 801 metri s.l.m.
11 °C
Sereno
Temp. 24 Ore
9 °C
27 °C
Nord/Nord-Est
14.8 Km/h
Dew point 6 °C
Umidità 71 %
Visibilità 10 Km
Il sole sorge alle ore 06:24
Il sole tramonta alle ore 19:42
| Data e Ora | Cielo e Fenomeni | T °C | DP °C | Um. % | Pres. hPa | Vis. km | Vento km/h | |
|---|---|---|---|---|---|---|---|---|
| Oggi h: 06:53 | Sereno | 11 | 6 | 71 | 1014 | 10 | N/NE 14.8 | |
| Oggi h: 05:53 | Sereno | 11 | 6 | 71 | 1014 | 10 | N/NE 16.7 | |
| Oggi h: 04:53 | Sereno | 11 | 6 | 71 | 1015 | 10 | N/NE 11.1 | |
| Oggi h: 03:53 | Sereno | 9 | 6 | 81 | 1015 | 10 | N/NE 14.8 | |
| Oggi h: 02:53 | Sereno | 12 | 6 | 66 | 1016 | 10 | N 5.5 | |
| Oggi h: 01:53 | Sereno | 14 | 5 | 54 | 1015 | 10 | N 5.5 | |
| Oggi h: 00:53 | Sereno | 14 | 4 | 50 | 1015 | 10 | N 5.5 | |
| Ieri h: 23:53 | Sereno | 18 | 4 | 39 | 1015 | 10 | N 5.5 | |
| Ieri h: 22:53 | Sereno | 17 | 4 | 41 | 1015 | 10 | S/SE 11.1 | |
| Ieri h: 21:53 | Sereno | 18 | 4 | 39 | 1015 | 10 | SE 7.4 | |
| Ieri h: 20:53 | Sereno | 21 | 4 | 32 | 1015 | 10 | E 9.3 | |
| Ieri h: 19:53 | Sereno | 21 | 4 | 32 | 1014 | 10 | N 14.8 | |
| Ieri h: 18:53 | Sereno | 25 | 3 | 23 | 1015 | 10 | O/NO 13 | |
| Ieri h: 17:53 | Sereno | 26 | 3 | 22 | 1015 | 10 | NO 18.5 | |
| Ieri h: 16:53 | Sereno | 27 | 3 | 21 | 1015 | 10 | O 18.5 | |
| Ieri h: 15:53 | Sereno | 27 | 2 | 19 | 1015 | 10 | O/NO 24 | |
| Ieri h: 14:53 | Sereno | 26 | 3 | 22 | 1015 | 10 | O/NO 22.2 | |
| Ieri h: 13:53 | Sereno | 25 | 3 | 23 | 1015 | 10 | O 33.3 | |
| Ieri h: 12:53 | Sereno | 25 | 3 | 23 | 1016 | 10 | O/NO 29.6 | |
| Ieri h: 11:53 | Sereno | 23 | 3 | 26 | 1016 | 10 | O 29.6 | |
| Ieri h: 10:53 | Sereno | 22 | 3 | 28 | 1016 | 10 | O 22.2 | |
| Ieri h: 09:53 | Sereno | 20 | 5 | 37 | 1016 | 10 | O 16.7 | |
| Ieri h: 08:53 | Sereno | 16 | 7 | 55 | 1016 | 10 | O/SO 20.3 | |
| Ieri h: 07:53 | Sereno | 12 | 9 | 81 | 1015 | 10 | O 11.1 | |



